sensor_id;sensor_type;location;lat;lon;timestamp;P1;durP1;ratioP1;P2;durP2;ratioP2
64029;SDS011;50277;52.064;4.492;2023-02-15T00:00:39;66.22;;;41.05;;
64029;SDS011;50277;52.064;4.492;2023-02-15T00:03:04;65.40;;;39.05;;
64029;SDS011;50277;52.064;4.492;2023-02-15T00:05:30;70.32;;;42.25;;
64029;SDS011;50277;52.064;4.492;2023-02-15T00:07:56;71.68;;;42.13;;
64029;SDS011;50277;52.064;4.492;2023-02-15T00:10:21;69.43;;;41.75;;
64029;SDS011;50277;52.064;4.492;2023-02-15T00:12:48;74.28;;;40.55;;
64029;SDS011;50277;52.064;4.492;2023-02-15T00:15:13;64.32;;;39.33;;
64029;SDS011;50277;52.064;4.492;2023-02-15T00:17:39;64.78;;;40.33;;
64029;SDS011;50277;52.064;4.492;2023-02-15T00:20:04;62.13;;;38.55;;
64029;SDS011;50277;52.064;4.492;2023-02-15T00:22:30;63.08;;;39.38;;
64029;SDS011;50277;52.064;4.492;2023-02-15T00:24:55;66.50;;;38.35;;
64029;SDS011;50277;52.064;4.492;2023-02-15T00:27:20;66.47;;;39.60;;
64029;SDS011;50277;52.064;4.492;2023-02-15T00:29:46;62.92;;;38.80;;
64029;SDS011;50277;52.064;4.492;2023-02-15T00:32:12;62.83;;;38.67;;
64029;SDS011;50277;52.064;4.492;2023-02-15T00:34:37;63.03;;;38.75;;
64029;SDS011;50277;52.064;4.492;2023-02-15T00:37:03;65.32;;;39.85;;
64029;SDS011;50277;52.064;4.492;2023-02-15T00:39:28;66.05;;;40.90;;
64029;SDS011;50277;52.064;4.492;2023-02-15T00:41:53;63.33;;;39.08;;
64029;SDS011;50277;52.064;4.492;2023-02-15T00:44:19;61.92;;;39.15;;
64029;SDS011;50277;52.064;4.492;2023-02-15T00:46:44;65.50;;;38.10;;
64029;SDS011;50277;52.064;4.492;2023-02-15T00:49:09;63.92;;;38.33;;
64029;SDS011;50277;52.064;4.492;2023-02-15T00:51:35;52.00;;;34.58;;
64029;SDS011;50277;52.064;4.492;2023-02-15T00:54:00;64.28;;;37.40;;
64029;SDS011;50277;52.064;4.492;2023-02-15T00:56:26;58.38;;;36.45;;
64029;SDS011;50277;52.064;4.492;2023-02-15T00:58:53;58.28;;;35.72;;
64029;SDS011;50277;52.064;4.492;2023-02-15T01:01:19;59.97;;;35.75;;
64029;SDS011;50277;52.064;4.492;2023-02-15T01:03:45;63.67;;;37.28;;
64029;SDS011;50277;52.064;4.492;2023-02-15T01:06:11;71.40;;;39.47;;
64029;SDS011;50277;52.064;4.492;2023-02-15T01:08:37;70.35;;;38.10;;
64029;SDS011;50277;52.064;4.492;2023-02-15T01:11:06;64.68;;;38.45;;
64029;SDS011;50277;52.064;4.492;2023-02-15T01:13:34;71.72;;;39.55;;
64029;SDS011;50277;52.064;4.492;2023-02-15T01:15:59;67.22;;;39.33;;
64029;SDS011;50277;52.064;4.492;2023-02-15T01:18:25;77.80;;;40.20;;
64029;SDS011;50277;52.064;4.492;2023-02-15T01:20:51;74.05;;;40.55;;
64029;SDS011;50277;52.064;4.492;2023-02-15T01:23:16;71.28;;;39.03;;
64029;SDS011;50277;52.064;4.492;2023-02-15T01:25:42;67.63;;;38.05;;
64029;SDS011;50277;52.064;4.492;2023-02-15T01:28:07;55.90;;;35.15;;
64029;SDS011;50277;52.064;4.492;2023-02-15T01:30:32;59.72;;;35.42;;
64029;SDS011;50277;52.064;4.492;2023-02-15T01:32:58;59.40;;;34.90;;
64029;SDS011;50277;52.064;4.492;2023-02-15T01:35:25;59.60;;;37.15;;
64029;SDS011;50277;52.064;4.492;2023-02-15T01:37:51;61.22;;;36.63;;
64029;SDS011;50277;52.064;4.492;2023-02-15T01:40:17;57.20;;;37.20;;
64029;SDS011;50277;52.064;4.492;2023-02-15T01:42:43;58.42;;;35.70;;
64029;SDS011;50277;52.064;4.492;2023-02-15T01:45:20;59.55;;;36.75;;
64029;SDS011;50277;52.064;4.492;2023-02-15T01:47:54;61.40;;;37.15;;
64029;SDS011;50277;52.064;4.492;2023-02-15T01:50:42;71.60;;;39.05;;
64029;SDS011;50277;52.064;4.492;2023-02-15T01:53:13;65.20;;;39.05;;
64029;SDS011;50277;52.064;4.492;2023-02-15T01:55:46;63.15;;;37.53;;
64029;SDS011;50277;52.064;4.492;2023-02-15T01:58:15;61.85;;;36.80;;
64029;SDS011;50277;52.064;4.492;2023-02-15T02:00:41;65.32;;;38.70;;
64029;SDS011;50277;52.064;4.492;2023-02-15T02:03:06;58.40;;;37.22;;
64029;SDS011;50277;52.064;4.492;2023-02-15T02:05:31;68.28;;;38.50;;
64029;SDS011;50277;52.064;4.492;2023-02-15T02:07:58;65.65;;;38.65;;
64029;SDS011;50277;52.064;4.492;2023-02-15T02:10:25;65.43;;;38.15;;
64029;SDS011;50277;52.064;4.492;2023-02-15T02:12:57;71.82;;;39.72;;
64029;SDS011;50277;52.064;4.492;2023-02-15T02:15:47;70.18;;;39.03;;
64029;SDS011;50277;52.064;4.492;2023-02-15T02:18:32;65.05;;;38.67;;
64029;SDS011;50277;52.064;4.492;2023-02-15T02:23:58;65.20;;;37.72;;
64029;SDS011;50277;52.064;4.492;2023-02-15T02:26:41;67.47;;;39.55;;
64029;SDS011;50277;52.064;4.492;2023-02-15T02:29:26;63.28;;;37.95;;
64029;SDS011;50277;52.064;4.492;2023-02-15T02:35:11;65.25;;;37.85;;
64029;SDS011;50277;52.064;4.492;2023-02-15T02:37:48;65.95;;;37.38;;
64029;SDS011;50277;52.064;4.492;2023-02-15T02:40:25;69.32;;;38.50;;
64029;SDS011;50277;52.064;4.492;2023-02-15T02:43:01;69.30;;;36.85;;
64029;SDS011;50277;52.064;4.492;2023-02-15T02:45:35;58.33;;;34.75;;
64029;SDS011;50277;52.064;4.492;2023-02-15T02:48:10;58.80;;;34.70;;
64029;SDS011;50277;52.064;4.492;2023-02-15T02:50:39;64.75;;;35.97;;
64029;SDS011;50277;52.064;4.492;2023-02-15T02:53:05;63.92;;;37.60;;
64029;SDS011;50277;52.064;4.492;2023-02-15T02:55:43;66.15;;;36.85;;
64029;SDS011;50277;52.064;4.492;2023-02-15T03:00:55;63.80;;;37.15;;
64029;SDS011;50277;52.064;4.492;2023-02-15T03:06:04;64.45;;;36.58;;
64029;SDS011;50277;52.064;4.492;2023-02-15T03:08:35;63.63;;;36.40;;
64029;SDS011;50277;52.064;4.492;2023-02-15T03:11:03;63.35;;;38.30;;
64029;SDS011;50277;52.064;4.492;2023-02-15T03:13:28;66.55;;;36.47;;
64029;SDS011;50277;52.064;4.492;2023-02-15T03:15:54;69.00;;;37.60;;
64029;SDS011;50277;52.064;4.492;2023-02-15T03:18:41;59.35;;;35.97;;
64029;SDS011;50277;52.064;4.492;2023-02-15T03:21:09;60.05;;;35.90;;
64029;SDS011;50277;52.064;4.492;2023-02-15T03:23:46;69.47;;;39.00;;
64029;SDS011;50277;52.064;4.492;2023-02-15T03:26:15;62.60;;;36.25;;
64029;SDS011;50277;52.064;4.492;2023-02-15T03:28:41;68.75;;;39.50;;
64029;SDS011;50277;52.064;4.492;2023-02-15T03:31:08;60.90;;;37.55;;
64029;SDS011;50277;52.064;4.492;2023-02-15T03:33:35;67.63;;;37.65;;
64029;SDS011;50277;52.064;4.492;2023-02-15T03:38:33;68.60;;;36.58;;
64029;SDS011;50277;52.064;4.492;2023-02-15T03:41:01;65.38;;;37.22;;
64029;SDS011;50277;52.064;4.492;2023-02-15T03:46:06;64.18;;;36.95;;
64029;SDS011;50277;52.064;4.492;2023-02-15T03:48:37;73.15;;;38.38;;
64029;SDS011;50277;52.064;4.492;2023-02-15T03:51:07;65.35;;;37.15;;
64029;SDS011;50277;52.064;4.492;2023-02-15T03:53:53;66.38;;;37.45;;
64029;SDS011;50277;52.064;4.492;2023-02-15T03:56:19;64.90;;;37.80;;
64029;SDS011;50277;52.064;4.492;2023-02-15T03:58:45;63.28;;;37.80;;
64029;SDS011;50277;52.064;4.492;2023-02-15T04:01:36;84.22;;;36.50;;
64029;SDS011;50277;52.064;4.492;2023-02-15T04:04:25;65.57;;;36.50;;
64029;SDS011;50277;52.064;4.492;2023-02-15T04:06:55;67.40;;;37.28;;
64029;SDS011;50277;52.064;4.492;2023-02-15T04:09:21;73.45;;;40.92;;
64029;SDS011;50277;52.064;4.492;2023-02-15T04:12:05;64.55;;;37.30;;
64029;SDS011;50277;52.064;4.492;2023-02-15T04:14:30;66.60;;;36.60;;
64029;SDS011;50277;52.064;4.492;2023-02-15T04:17:14;63.17;;;37.22;;
64029;SDS011;50277;52.064;4.492;2023-02-15T04:19:39;70.45;;;36.42;;
64029;SDS011;50277;52.064;4.492;2023-02-15T04:22:23;67.20;;;37.25;;
64029;SDS011;50277;52.064;4.492;2023-02-15T04:25:07;66.43;;;35.70;;
64029;SDS011;50277;52.064;4.492;2023-02-15T04:27:39;65.25;;;36.10;;
64029;SDS011;50277;52.064;4.492;2023-02-15T04:30:06;66.97;;;36.17;;
64029;SDS011;50277;52.064;4.492;2023-02-15T04:32:32;68.00;;;35.88;;
64029;SDS011;50277;52.064;4.492;2023-02-15T04:34:58;62.13;;;34.85;;
64029;SDS011;50277;52.064;4.492;2023-02-15T04:37:23;62.85;;;35.17;;
64029;SDS011;50277;52.064;4.492;2023-02-15T04:39:48;61.00;;;34.42;;
64029;SDS011;50277;52.064;4.492;2023-02-15T04:42:14;62.78;;;35.95;;
64029;SDS011;50277;52.064;4.492;2023-02-15T04:44:40;69.45;;;37.03;;
64029;SDS011;50277;52.064;4.492;2023-02-15T04:47:05;62.53;;;35.25;;
64029;SDS011;50277;52.064;4.492;2023-02-15T04:49:31;64.32;;;35.05;;
64029;SDS011;50277;52.064;4.492;2023-02-15T04:51:56;64.72;;;36.47;;
64029;SDS011;50277;52.064;4.492;2023-02-15T04:54:21;67.22;;;36.25;;
64029;SDS011;50277;52.064;4.492;2023-02-15T04:56:47;66.25;;;36.72;;
64029;SDS011;50277;52.064;4.492;2023-02-15T04:59:12;68.05;;;36.33;;
64029;SDS011;50277;52.064;4.492;2023-02-15T05:01:37;64.28;;;34.95;;
64029;SDS011;50277;52.064;4.492;2023-02-15T05:04:03;68.50;;;36.58;;
64029;SDS011;50277;52.064;4.492;2023-02-15T05:06:28;67.72;;;36.75;;
64029;SDS011;50277;52.064;4.492;2023-02-15T05:08:53;71.63;;;36.72;;
64029;SDS011;50277;52.064;4.492;2023-02-15T05:11:19;66.35;;;35.25;;
64029;SDS011;50277;52.064;4.492;2023-02-15T05:13:44;65.95;;;34.78;;
64029;SDS011;50277;52.064;4.492;2023-02-15T05:16:09;70.32;;;36.28;;
64029;SDS011;50277;52.064;4.492;2023-02-15T05:18:35;63.53;;;35.17;;
64029;SDS011;50277;52.064;4.492;2023-02-15T05:21:00;69.50;;;38.22;;
64029;SDS011;50277;52.064;4.492;2023-02-15T05:23:25;76.75;;;37.83;;
64029;SDS011;50277;52.064;4.492;2023-02-15T05:25:51;79.43;;;39.60;;
64029;SDS011;50277;52.064;4.492;2023-02-15T05:28:35;81.13;;;41.13;;
64029;SDS011;50277;52.064;4.492;2023-02-15T05:31:09;80.18;;;40.83;;
64029;SDS011;50277;52.064;4.492;2023-02-15T05:33:39;73.80;;;39.42;;
64029;SDS011;50277;52.064;4.492;2023-02-15T05:36:05;69.72;;;39.08;;
64029;SDS011;50277;52.064;4.492;2023-02-15T05:38:31;78.10;;;38.78;;
64029;SDS011;50277;52.064;4.492;2023-02-15T05:40:57;76.38;;;37.83;;
64029;SDS011;50277;52.064;4.492;2023-02-15T05:43:22;71.43;;;38.08;;
64029;SDS011;50277;52.064;4.492;2023-02-15T05:45:48;60.47;;;34.70;;
64029;SDS011;50277;52.064;4.492;2023-02-15T05:48:15;69.93;;;37.10;;
64029;SDS011;50277;52.064;4.492;2023-02-15T05:50:41;70.13;;;36.08;;
64029;SDS011;50277;52.064;4.492;2023-02-15T05:53:06;68.72;;;36.72;;
64029;SDS011;50277;52.064;4.492;2023-02-15T05:55:32;69.45;;;37.38;;
64029;SDS011;50277;52.064;4.492;2023-02-15T05:57:57;69.00;;;36.72;;
64029;SDS011;50277;52.064;4.492;2023-02-15T06:00:22;63.10;;;35.03;;
64029;SDS011;50277;52.064;4.492;2023-02-15T06:02:50;65.10;;;36.28;;
64029;SDS011;50277;52.064;4.492;2023-02-15T06:05:15;63.92;;;35.13;;
64029;SDS011;50277;52.064;4.492;2023-02-15T06:07:44;63.08;;;35.22;;
64029;SDS011;50277;52.064;4.492;2023-02-15T06:10:10;68.55;;;34.67;;
64029;SDS011;50277;52.064;4.492;2023-02-15T06:12:35;67.22;;;35.30;;
64029;SDS011;50277;52.064;4.492;2023-02-15T06:15:01;64.47;;;35.45;;
64029;SDS011;50277;52.064;4.492;2023-02-15T06:17:26;73.05;;;35.72;;
64029;SDS011;50277;52.064;4.492;2023-02-15T06:19:51;69.47;;;35.90;;
64029;SDS011;50277;52.064;4.492;2023-02-15T06:22:17;65.97;;;34.78;;
64029;SDS011;50277;52.064;4.492;2023-02-15T06:24:42;67.13;;;35.92;;
64029;SDS011;50277;52.064;4.492;2023-02-15T06:27:08;68.68;;;35.15;;
64029;SDS011;50277;52.064;4.492;2023-02-15T06:29:34;63.10;;;35.00;;
64029;SDS011;50277;52.064;4.492;2023-02-15T06:32:00;64.38;;;36.50;;
64029;SDS011;50277;52.064;4.492;2023-02-15T06:34:25;61.67;;;35.42;;
64029;SDS011;50277;52.064;4.492;2023-02-15T06:36:50;59.78;;;33.30;;
64029;SDS011;50277;52.064;4.492;2023-02-15T06:39:16;55.28;;;35.53;;
64029;SDS011;50277;52.064;4.492;2023-02-15T06:41:41;72.20;;;36.45;;
64029;SDS011;50277;52.064;4.492;2023-02-15T06:44:06;61.88;;;34.65;;
64029;SDS011;50277;52.064;4.492;2023-02-15T06:46:32;67.05;;;35.65;;
64029;SDS011;50277;52.064;4.492;2023-02-15T06:48:57;69.07;;;37.25;;
64029;SDS011;50277;52.064;4.492;2023-02-15T06:51:22;65.95;;;35.35;;
64029;SDS011;50277;52.064;4.492;2023-02-15T06:53:48;68.63;;;36.35;;
64029;SDS011;50277;52.064;4.492;2023-02-15T06:56:13;63.75;;;36.00;;
64029;SDS011;50277;52.064;4.492;2023-02-15T06:58:39;66.63;;;36.25;;
64029;SDS011;50277;52.064;4.492;2023-02-15T07:01:05;69.50;;;37.53;;
64029;SDS011;50277;52.064;4.492;2023-02-15T07:03:31;68.85;;;37.20;;
64029;SDS011;50277;52.064;4.492;2023-02-15T07:05:57;63.83;;;36.17;;
64029;SDS011;50277;52.064;4.492;2023-02-15T07:08:24;74.10;;;37.42;;
64029;SDS011;50277;52.064;4.492;2023-02-15T07:10:50;67.68;;;36.92;;
64029;SDS011;50277;52.064;4.492;2023-02-15T07:13:16;60.60;;;35.38;;
64029;SDS011;50277;52.064;4.492;2023-02-15T07:15:41;66.60;;;35.53;;
64029;SDS011;50277;52.064;4.492;2023-02-15T07:18:06;64.63;;;34.25;;
64029;SDS011;50277;52.064;4.492;2023-02-15T07:20:32;67.57;;;35.17;;
64029;SDS011;50277;52.064;4.492;2023-02-15T07:23:00;63.88;;;35.83;;
64029;SDS011;50277;52.064;4.492;2023-02-15T07:25:25;64.90;;;36.55;;
64029;SDS011;50277;52.064;4.492;2023-02-15T07:28:01;59.38;;;34.03;;
64029;SDS011;50277;52.064;4.492;2023-02-15T07:30:27;59.88;;;34.25;;
64029;SDS011;50277;52.064;4.492;2023-02-15T07:32:56;57.88;;;33.45;;
64029;SDS011;50277;52.064;4.492;2023-02-15T07:35:47;64.18;;;35.25;;
64029;SDS011;50277;52.064;4.492;2023-02-15T07:38:19;58.97;;;32.50;;
64029;SDS011;50277;52.064;4.492;2023-02-15T07:40:44;61.25;;;34.25;;
64029;SDS011;50277;52.064;4.492;2023-02-15T07:43:10;57.45;;;33.65;;
64029;SDS011;50277;52.064;4.492;2023-02-15T07:45:36;57.03;;;33.90;;
64029;SDS011;50277;52.064;4.492;2023-02-15T07:48:02;60.28;;;33.75;;
64029;SDS011;50277;52.064;4.492;2023-02-15T07:50:28;54.97;;;32.90;;
64029;SDS011;50277;52.064;4.492;2023-02-15T07:52:53;64.57;;;34.05;;
64029;SDS011;50277;52.064;4.492;2023-02-15T07:55:18;62.08;;;33.88;;
64029;SDS011;50277;52.064;4.492;2023-02-15T07:57:44;61.15;;;33.47;;
64029;SDS011;50277;52.064;4.492;2023-02-15T08:00:11;62.35;;;34.42;;
64029;SDS011;50277;52.064;4.492;2023-02-15T08:02:38;56.97;;;32.63;;
64029;SDS011;50277;52.064;4.492;2023-02-15T08:05:03;60.13;;;33.08;;
64029;SDS011;50277;52.064;4.492;2023-02-15T08:07:29;59.47;;;33.97;;
64029;SDS011;50277;52.064;4.492;2023-02-15T08:09:54;65.25;;;33.50;;
64029;SDS011;50277;52.064;4.492;2023-02-15T08:12:19;61.17;;;34.28;;
64029;SDS011;50277;52.064;4.492;2023-02-15T08:14:44;53.47;;;33.83;;
64029;SDS011;50277;52.064;4.492;2023-02-15T08:17:10;58.15;;;31.80;;
64029;SDS011;50277;52.064;4.492;2023-02-15T08:19:35;55.10;;;32.60;;
64029;SDS011;50277;52.064;4.492;2023-02-15T08:22:02;65.25;;;33.78;;
64029;SDS011;50277;52.064;4.492;2023-02-15T08:24:32;56.17;;;32.63;;
64029;SDS011;50277;52.064;4.492;2023-02-15T08:26:59;59.92;;;32.78;;
64029;SDS011;50277;52.064;4.492;2023-02-15T08:29:26;53.97;;;32.42;;
64029;SDS011;50277;52.064;4.492;2023-02-15T08:31:53;54.47;;;31.35;;
64029;SDS011;50277;52.064;4.492;2023-02-15T08:34:23;50.65;;;29.60;;
64029;SDS011;50277;52.064;4.492;2023-02-15T08:36:48;51.17;;;29.92;;
64029;SDS011;50277;52.064;4.492;2023-02-15T08:39:14;48.83;;;28.95;;
64029;SDS011;50277;52.064;4.492;2023-02-15T08:41:41;48.05;;;27.98;;
64029;SDS011;50277;52.064;4.492;2023-02-15T08:44:10;51.28;;;30.63;;
64029;SDS011;50277;52.064;4.492;2023-02-15T08:46:37;41.67;;;26.40;;
64029;SDS011;50277;52.064;4.492;2023-02-15T08:49:04;46.08;;;28.52;;
64029;SDS011;50277;52.064;4.492;2023-02-15T08:51:30;50.75;;;28.75;;
64029;SDS011;50277;52.064;4.492;2023-02-15T08:53:58;46.93;;;28.93;;
64029;SDS011;50277;52.064;4.492;2023-02-15T08:56:29;45.72;;;28.75;;
64029;SDS011;50277;52.064;4.492;2023-02-15T08:58:57;49.70;;;29.13;;
64029;SDS011;50277;52.064;4.492;2023-02-15T09:01:23;43.78;;;28.10;;
64029;SDS011;50277;52.064;4.492;2023-02-15T09:03:51;42.73;;;26.83;;
64029;SDS011;50277;52.064;4.492;2023-02-15T09:06:20;42.08;;;26.27;;
64029;SDS011;50277;52.064;4.492;2023-02-15T09:08:47;46.97;;;29.63;;
64029;SDS011;50277;52.064;4.492;2023-02-15T09:11:19;43.88;;;26.25;;
64029;SDS011;50277;52.064;4.492;2023-02-15T09:13:52;39.35;;;25.70;;
64029;SDS011;50277;52.064;4.492;2023-02-15T09:16:18;45.35;;;25.77;;
64029;SDS011;50277;52.064;4.492;2023-02-15T09:18:44;47.92;;;27.42;;
64029;SDS011;50277;52.064;4.492;2023-02-15T09:21:11;41.08;;;26.98;;
64029;SDS011;50277;52.064;4.492;2023-02-15T09:23:40;42.50;;;27.00;;
64029;SDS011;50277;52.064;4.492;2023-02-15T09:26:10;41.13;;;25.80;;
64029;SDS011;50277;52.064;4.492;2023-02-15T09:28:37;47.97;;;27.73;;
64029;SDS011;50277;52.064;4.492;2023-02-15T09:31:10;43.08;;;28.42;;
64029;SDS011;50277;52.064;4.492;2023-02-15T09:33:38;43.35;;;28.52;;
64029;SDS011;50277;52.064;4.492;2023-02-15T09:36:05;45.92;;;27.60;;
64029;SDS011;50277;52.064;4.492;2023-02-15T09:38:37;41.78;;;27.08;;
64029;SDS011;50277;52.064;4.492;2023-02-15T09:41:09;42.75;;;27.27;;
64029;SDS011;50277;52.064;4.492;2023-02-15T09:43:48;43.42;;;28.02;;
64029;SDS011;50277;52.064;4.492;2023-02-15T09:51:58;51.15;;;30.48;;
64029;SDS011;50277;52.064;4.492;2023-02-15T09:54:30;45.75;;;29.00;;
64029;SDS011;50277;52.064;4.492;2023-02-15T09:57:08;44.10;;;28.85;;
64029;SDS011;50277;52.064;4.492;2023-02-15T09:59:49;42.92;;;28.52;;
64029;SDS011;50277;52.064;4.492;2023-02-15T10:02:44;39.83;;;27.15;;
64029;SDS011;50277;52.064;4.492;2023-02-15T10:07:47;47.88;;;29.05;;
64029;SDS011;50277;52.064;4.492;2023-02-15T10:12:57;45.78;;;28.35;;
64029;SDS011;50277;52.064;4.492;2023-02-15T10:18:19;49.45;;;28.52;;
64029;SDS011;50277;52.064;4.492;2023-02-15T10:21:42;45.25;;;29.35;;
64029;SDS011;50277;52.064;4.492;2023-02-15T10:24:01;41.10;;;28.45;;
64029;SDS011;50277;52.064;4.492;2023-02-15T10:29:19;40.97;;;28.77;;
64029;SDS011;50277;52.064;4.492;2023-02-15T10:31:57;45.15;;;29.65;;
64029;SDS011;50277;52.064;4.492;2023-02-15T10:34:35;51.72;;;30.90;;
64029;SDS011;50277;52.064;4.492;2023-02-15T10:39:55;45.55;;;29.40;;
64029;SDS011;50277;52.064;4.492;2023-02-15T10:42:40;53.25;;;28.05;;
64029;SDS011;50277;52.064;4.492;2023-02-15T10:45:14;45.65;;;28.52;;
64029;SDS011;50277;52.064;4.492;2023-02-15T10:48:08;44.38;;;28.77;;
64029;SDS011;50277;52.064;4.492;2023-02-15T10:50:40;44.63;;;29.83;;
64029;SDS011;50277;52.064;4.492;2023-02-15T10:53:17;47.30;;;31.23;;
64029;SDS011;50277;52.064;4.492;2023-02-15T11:01:51;44.92;;;28.17;;
64029;SDS011;50277;52.064;4.492;2023-02-15T11:04:32;41.83;;;28.73;;
64029;SDS011;50277;52.064;4.492;2023-02-15T11:07:04;43.10;;;29.27;;
64029;SDS011;50277;52.064;4.492;2023-02-15T11:09:38;46.15;;;29.52;;
64029;SDS011;50277;52.064;4.492;2023-02-15T11:12:14;52.78;;;29.88;;
64029;SDS011;50277;52.064;4.492;2023-02-15T11:14:48;43.40;;;28.35;;
64029;SDS011;50277;52.064;4.492;2023-02-15T11:17:24;44.15;;;26.92;;
64029;SDS011;50277;52.064;4.492;2023-02-15T11:19:55;44.40;;;29.67;;
64029;SDS011;50277;52.064;4.492;2023-02-15T11:22:23;44.38;;;27.58;;
64029;SDS011;50277;52.064;4.492;2023-02-15T11:24:49;50.65;;;29.02;;
64029;SDS011;50277;52.064;4.492;2023-02-15T11:30:19;54.20;;;30.17;;
64029;SDS011;50277;52.064;4.492;2023-02-15T11:32:48;45.00;;;28.85;;
64029;SDS011;50277;52.064;4.492;2023-02-15T11:37:46;43.83;;;27.35;;
64029;SDS011;50277;52.064;4.492;2023-02-15T11:40:15;51.03;;;32.05;;
64029;SDS011;50277;52.064;4.492;2023-02-15T11:42:45;48.28;;;29.73;;
64029;SDS011;50277;52.064;4.492;2023-02-15T11:45:28;47.63;;;30.65;;
64029;SDS011;50277;52.064;4.492;2023-02-15T11:47:55;50.22;;;31.58;;
64029;SDS011;50277;52.064;4.492;2023-02-15T11:50:23;48.50;;;30.83;;
64029;SDS011;50277;52.064;4.492;2023-02-15T11:52:50;53.30;;;30.83;;
64029;SDS011;50277;52.064;4.492;2023-02-15T11:55:21;49.42;;;30.10;;
64029;SDS011;50277;52.064;4.492;2023-02-15T12:00:40;45.33;;;30.50;;
64029;SDS011;50277;52.064;4.492;2023-02-15T12:03:11;52.85;;;31.77;;
64029;SDS011;50277;52.064;4.492;2023-02-15T12:05:40;52.10;;;28.85;;
64029;SDS011;50277;52.064;4.492;2023-02-15T12:08:17;55.95;;;30.65;;
64029;SDS011;50277;52.064;4.492;2023-02-15T12:15:58;51.00;;;29.55;;
64029;SDS011;50277;52.064;4.492;2023-02-15T12:21:08;54.13;;;30.77;;
64029;SDS011;50277;52.064;4.492;2023-02-15T12:23:40;49.13;;;29.48;;
64029;SDS011;50277;52.064;4.492;2023-02-15T12:26:10;51.38;;;29.58;;
64029;SDS011;50277;52.064;4.492;2023-02-15T12:28:36;46.95;;;29.30;;
64029;SDS011;50277;52.064;4.492;2023-02-15T12:31:07;48.42;;;29.55;;
64029;SDS011;50277;52.064;4.492;2023-02-15T12:33:55;49.20;;;29.85;;
64029;SDS011;50277;52.064;4.492;2023-02-15T12:36:29;45.80;;;28.38;;
64029;SDS011;50277;52.064;4.492;2023-02-15T12:39:15;51.75;;;30.70;;
64029;SDS011;50277;52.064;4.492;2023-02-15T12:41:46;45.97;;;29.00;;
64029;SDS011;50277;52.064;4.492;2023-02-15T12:44:23;51.95;;;29.50;;
64029;SDS011;50277;52.064;4.492;2023-02-15T12:47:01;52.40;;;27.92;;
64029;SDS011;50277;52.064;4.492;2023-02-15T12:49:28;41.47;;;26.77;;
64029;SDS011;50277;52.064;4.492;2023-02-15T12:51:58;46.17;;;26.70;;
64029;SDS011;50277;52.064;4.492;2023-02-15T12:54:30;48.47;;;26.52;;
64029;SDS011;50277;52.064;4.492;2023-02-15T12:57:04;45.38;;;25.65;;
64029;SDS011;50277;52.064;4.492;2023-02-15T12:59:52;37.20;;;23.90;;
64029;SDS011;50277;52.064;4.492;2023-02-15T13:02:28;43.50;;;27.90;;
64029;SDS011;50277;52.064;4.492;2023-02-15T13:04:56;40.70;;;26.40;;
64029;SDS011;50277;52.064;4.492;2023-02-15T13:07:24;42.97;;;26.58;;
64029;SDS011;50277;52.064;4.492;2023-02-15T13:09:53;51.60;;;27.92;;
64029;SDS011;50277;52.064;4.492;2023-02-15T13:12:26;44.05;;;26.52;;
64029;SDS011;50277;52.064;4.492;2023-02-15T13:14:54;43.45;;;26.50;;
64029;SDS011;50277;52.064;4.492;2023-02-15T13:17:53;41.72;;;26.02;;
64029;SDS011;50277;52.064;4.492;2023-02-15T13:20:18;41.67;;;26.33;;
64029;SDS011;50277;52.064;4.492;2023-02-15T13:22:47;48.83;;;28.65;;
64029;SDS011;50277;52.064;4.492;2023-02-15T13:25:21;43.65;;;26.90;;
64029;SDS011;50277;52.064;4.492;2023-02-15T13:27:50;44.97;;;27.52;;
64029;SDS011;50277;52.064;4.492;2023-02-15T13:30:20;45.92;;;27.10;;
64029;SDS011;50277;52.064;4.492;2023-02-15T13:32:51;48.35;;;28.17;;
64029;SDS011;50277;52.064;4.492;2023-02-15T13:35:18;47.10;;;28.55;;
64029;SDS011;50277;52.064;4.492;2023-02-15T13:48:37;46.60;;;28.92;;
64029;SDS011;50277;52.064;4.492;2023-02-15T13:59:32;49.78;;;29.50;;
64029;SDS011;50277;52.064;4.492;2023-02-15T14:07:42;50.00;;;29.13;;
64029;SDS011;50277;52.064;4.492;2023-02-15T14:16:08;50.05;;;29.75;;
64029;SDS011;50277;52.064;4.492;2023-02-15T14:18:42;50.97;;;30.30;;
64029;SDS011;50277;52.064;4.492;2023-02-15T14:21:15;44.00;;;27.73;;
64029;SDS011;50277;52.064;4.492;2023-02-15T14:32:08;45.30;;;28.13;;
64029;SDS011;50277;52.064;4.492;2023-02-15T14:34:53;50.10;;;29.30;;
64029;SDS011;50277;52.064;4.492;2023-02-15T14:37:26;45.75;;;27.63;;
64029;SDS011;50277;52.064;4.492;2023-02-15T14:43:06;44.00;;;27.45;;
64029;SDS011;50277;52.064;4.492;2023-02-15T14:45:36;43.50;;;27.25;;
64029;SDS011;50277;52.064;4.492;2023-02-15T14:50:54;44.53;;;27.20;;
64029;SDS011;50277;52.064;4.492;2023-02-15T14:53:25;45.80;;;28.42;;
64029;SDS011;50277;52.064;4.492;2023-02-15T14:56:04;47.63;;;28.17;;
64029;SDS011;50277;52.064;4.492;2023-02-15T14:58:33;47.30;;;27.38;;
64029;SDS011;50277;52.064;4.492;2023-02-15T15:01:08;46.92;;;29.50;;
64029;SDS011;50277;52.064;4.492;2023-02-15T15:03:34;50.95;;;29.15;;
64029;SDS011;50277;52.064;4.492;2023-02-15T15:06:01;43.42;;;26.98;;
64029;SDS011;50277;52.064;4.492;2023-02-15T15:08:36;50.35;;;28.77;;
64029;SDS011;50277;52.064;4.492;2023-02-15T15:17:00;43.60;;;28.27;;
64029;SDS011;50277;52.064;4.492;2023-02-15T15:22:20;41.80;;;26.88;;
64029;SDS011;50277;52.064;4.492;2023-02-15T15:46:28;55.13;;;31.42;;
64029;SDS011;50277;52.064;4.492;2023-02-15T15:49:16;47.35;;;29.05;;
64029;SDS011;50277;52.064;4.492;2023-02-15T15:51:43;50.83;;;29.27;;
64029;SDS011;50277;52.064;4.492;2023-02-15T15:54:17;47.45;;;29.50;;
64029;SDS011;50277;52.064;4.492;2023-02-15T15:56:44;45.55;;;28.52;;
64029;SDS011;50277;52.064;4.492;2023-02-15T16:01:41;43.15;;;28.20;;
64029;SDS011;50277;52.064;4.492;2023-02-15T16:04:11;42.47;;;27.02;;
64029;SDS011;50277;52.064;4.492;2023-02-15T16:06:38;47.92;;;29.33;;
64029;SDS011;50277;52.064;4.492;2023-02-15T16:09:21;49.78;;;29.25;;
64029;SDS011;50277;52.064;4.492;2023-02-15T16:11:49;45.33;;;28.23;;
64029;SDS011;50277;52.064;4.492;2023-02-15T16:16:56;49.72;;;28.95;;
64029;SDS011;50277;52.064;4.492;2023-02-15T16:19:25;49.78;;;29.88;;
64029;SDS011;50277;52.064;4.492;2023-02-15T16:21:52;46.72;;;29.20;;
64029;SDS011;50277;52.064;4.492;2023-02-15T16:27:03;45.08;;;28.17;;
64029;SDS011;50277;52.064;4.492;2023-02-15T16:29:35;50.20;;;30.52;;
64029;SDS011;50277;52.064;4.492;2023-02-15T16:32:06;55.80;;;32.03;;
64029;SDS011;50277;52.064;4.492;2023-02-15T16:34:50;52.10;;;31.30;;
64029;SDS011;50277;52.064;4.492;2023-02-15T16:37:26;57.00;;;32.47;;
64029;SDS011;50277;52.064;4.492;2023-02-15T16:39:52;51.75;;;32.17;;
64029;SDS011;50277;52.064;4.492;2023-02-15T16:42:19;48.53;;;30.98;;
64029;SDS011;50277;52.064;4.492;2023-02-15T16:44:45;53.05;;;32.75;;
64029;SDS011;50277;52.064;4.492;2023-02-15T16:47:45;52.30;;;33.22;;
64029;SDS011;50277;52.064;4.492;2023-02-15T16:50:06;54.25;;;32.35;;
64029;SDS011;50277;52.064;4.492;2023-02-15T16:52:42;51.17;;;30.88;;
64029;SDS011;50277;52.064;4.492;2023-02-15T16:55:17;50.88;;;31.65;;
64029;SDS011;50277;52.064;4.492;2023-02-15T16:57:45;55.77;;;32.40;;